sensor_id;sensor_type;location;lat;lon;timestamp;pressure;altitude;pressure_sealevel;temperature;humidity
64889;BME280;51386;53.082;8.816;2022-12-10T00:01:10;100778.34;;;6.76;57.10
64889;BME280;51386;53.082;8.816;2022-12-10T00:03:37;100779.84;;;6.79;56.87
64889;BME280;51386;53.082;8.816;2022-12-10T00:06:08;100786.28;;;6.85;57.23
64889;BME280;51386;53.082;8.816;2022-12-10T00:08:36;100787.31;;;6.92;56.77
64889;BME280;51386;53.082;8.816;2022-12-10T00:11:06;100781.47;;;6.98;57.62
64889;BME280;51386;53.082;8.816;2022-12-10T00:13:35;100784.19;;;7.06;56.94
64889;BME280;51386;53.082;8.816;2022-12-10T00:16:07;100791.84;;;7.07;57.32
64889;BME280;51386;53.082;8.816;2022-12-10T00:18:35;100787.13;;;7.11;56.63
64889;BME280;51386;53.082;8.816;2022-12-10T00:21:04;100791.69;;;7.09;56.24
64889;BME280;51386;53.082;8.816;2022-12-10T00:23:32;100784.84;;;7.08;56.95
64889;BME280;51386;53.082;8.816;2022-12-10T00:26:03;100784.50;;;7.11;56.75
64889;BME280;51386;53.082;8.816;2022-12-10T00:28:30;100783.09;;;7.16;56.80
64889;BME280;51386;53.082;8.816;2022-12-10T00:31:05;100779.97;;;7.13;56.38
64889;BME280;51386;53.082;8.816;2022-12-10T00:33:33;100775.13;;;7.18;56.91
64889;BME280;51386;53.082;8.816;2022-12-10T00:36:05;100785.63;;;7.26;56.45
64889;BME280;51386;53.082;8.816;2022-12-10T00:38:33;100778.16;;;7.31;56.31
64889;BME280;51386;53.082;8.816;2022-12-10T00:41:00;100777.19;;;7.32;55.56
64889;BME280;51386;53.082;8.816;2022-12-10T00:43:27;100782.09;;;7.35;56.08
64889;BME280;51386;53.082;8.816;2022-12-10T00:45:54;100785.38;;;7.37;55.76
64889;BME280;51386;53.082;8.816;2022-12-10T00:48:23;100788.53;;;7.40;55.77
64889;BME280;51386;53.082;8.816;2022-12-10T00:50:58;100793.28;;;7.45;55.92
64889;BME280;51386;53.082;8.816;2022-12-10T00:53:27;100789.38;;;7.49;55.92
64889;BME280;51386;53.082;8.816;2022-12-10T00:55:55;100795.63;;;7.48;55.00
64889;BME280;51386;53.082;8.816;2022-12-10T00:58:23;100793.28;;;7.45;55.39
64889;BME280;51386;53.082;8.816;2022-12-10T01:00:52;100792.78;;;7.41;55.46
64889;BME280;51386;53.082;8.816;2022-12-10T01:03:19;100790.31;;;7.40;55.66
64889;BME280;51386;53.082;8.816;2022-12-10T01:05:48;100799.47;;;7.36;55.64
64889;BME280;51386;53.082;8.816;2022-12-10T01:08:15;100791.22;;;7.31;55.62
64889;BME280;51386;53.082;8.816;2022-12-10T01:10:42;100800.03;;;7.30;55.40
64889;BME280;51386;53.082;8.816;2022-12-10T01:13:09;100802.00;;;7.28;55.53
64889;BME280;51386;53.082;8.816;2022-12-10T01:15:37;100804.25;;;7.23;55.14
64889;BME280;51386;53.082;8.816;2022-12-10T01:18:05;100805.91;;;7.24;55.58
64889;BME280;51386;53.082;8.816;2022-12-10T01:20:35;100808.16;;;7.19;55.71
64889;BME280;51386;53.082;8.816;2022-12-10T01:23:04;100810.09;;;7.17;55.46
64889;BME280;51386;53.082;8.816;2022-12-10T01:25:31;100811.06;;;7.16;56.31
64889;BME280;51386;53.082;8.816;2022-12-10T01:27:58;100810.75;;;7.19;55.96
64889;BME280;51386;53.082;8.816;2022-12-10T01:30:25;100816.16;;;7.17;55.96
64889;BME280;51386;53.082;8.816;2022-12-10T01:32:52;100814.59;;;7.07;55.68
64889;BME280;51386;53.082;8.816;2022-12-10T01:35:19;100814.81;;;6.96;56.33
64889;BME280;51386;53.082;8.816;2022-12-10T01:37:46;100818.84;;;6.90;55.96
64889;BME280;51386;53.082;8.816;2022-12-10T01:40:14;100822.28;;;6.91;56.31
64889;BME280;51386;53.082;8.816;2022-12-10T01:42:41;100821.00;;;6.95;56.24
64889;BME280;51386;53.082;8.816;2022-12-10T01:45:12;100823.16;;;6.99;56.38
64889;BME280;51386;53.082;8.816;2022-12-10T01:47:39;100831.56;;;7.03;56.34
64889;BME280;51386;53.082;8.816;2022-12-10T01:50:08;100834.47;;;7.00;56.14
64889;BME280;51386;53.082;8.816;2022-12-10T01:52:36;100836.13;;;7.01;56.81
64889;BME280;51386;53.082;8.816;2022-12-10T01:55:41;100838.13;;;7.07;56.30
64889;BME280;51386;53.082;8.816;2022-12-10T01:58:09;100839.03;;;7.15;56.09
64889;BME280;51386;53.082;8.816;2022-12-10T02:00:45;100837.09;;;7.17;55.52
64889;BME280;51386;53.082;8.816;2022-12-10T02:03:19;100844.13;;;7.17;55.41
64889;BME280;51386;53.082;8.816;2022-12-10T02:05:53;100837.75;;;7.19;56.07
64889;BME280;51386;53.082;8.816;2022-12-10T02:08:27;100842.00;;;7.20;55.94
64889;BME280;51386;53.082;8.816;2022-12-10T02:11:09;100845.63;;;7.19;55.49
64889;BME280;51386;53.082;8.816;2022-12-10T02:13:44;100839.56;;;7.19;55.52
64889;BME280;51386;53.082;8.816;2022-12-10T02:16:16;100839.84;;;7.16;55.60
64889;BME280;51386;53.082;8.816;2022-12-10T02:18:52;100847.19;;;7.12;55.10
64889;BME280;51386;53.082;8.816;2022-12-10T02:21:27;100839.78;;;7.08;55.21
64889;BME280;51386;53.082;8.816;2022-12-10T02:24:01;100839.91;;;7.06;55.07
64889;BME280;51386;53.082;8.816;2022-12-10T02:26:40;100839.13;;;7.06;56.09
64889;BME280;51386;53.082;8.816;2022-12-10T02:29:15;100840.97;;;7.13;55.37
64889;BME280;51386;53.082;8.816;2022-12-10T02:31:53;100844.94;;;7.17;55.66
64889;BME280;51386;53.082;8.816;2022-12-10T02:34:24;100838.22;;;7.15;55.08
64889;BME280;51386;53.082;8.816;2022-12-10T02:36:55;100839.47;;;7.11;55.21
64889;BME280;51386;53.082;8.816;2022-12-10T02:39:32;100843.53;;;7.05;54.97
64889;BME280;51386;53.082;8.816;2022-12-10T02:42:04;100847.63;;;7.08;55.10
64889;BME280;51386;53.082;8.816;2022-12-10T02:44:37;100844.34;;;7.06;55.09
64889;BME280;51386;53.082;8.816;2022-12-10T02:47:07;100855.09;;;7.03;55.80
64889;BME280;51386;53.082;8.816;2022-12-10T02:49:37;100853.16;;;7.05;55.23
64889;BME280;51386;53.082;8.816;2022-12-10T02:52:08;100852.88;;;7.08;55.48
64889;BME280;51386;53.082;8.816;2022-12-10T02:54:40;100861.56;;;7.08;55.55
64889;BME280;51386;53.082;8.816;2022-12-10T02:57:34;100851.81;;;7.01;55.13
64889;BME280;51386;53.082;8.816;2022-12-10T03:00:11;100853.06;;;6.97;55.73
64889;BME280;51386;53.082;8.816;2022-12-10T03:02:59;100848.44;;;6.91;55.60
64889;BME280;51386;53.082;8.816;2022-12-10T03:05:36;100850.00;;;6.83;55.45
64889;BME280;51386;53.082;8.816;2022-12-10T03:08:13;100846.72;;;6.81;55.76
64889;BME280;51386;53.082;8.816;2022-12-10T03:10:50;100848.34;;;6.82;55.84
64889;BME280;51386;53.082;8.816;2022-12-10T03:13:28;100848.06;;;6.86;55.22
64889;BME280;51386;53.082;8.816;2022-12-10T03:15:59;100847.50;;;6.92;55.23
64889;BME280;51386;53.082;8.816;2022-12-10T03:18:31;100847.16;;;6.95;54.65
64889;BME280;51386;53.082;8.816;2022-12-10T03:21:05;100852.94;;;6.98;54.91
64889;BME280;51386;53.082;8.816;2022-12-10T03:23:35;100848.22;;;7.02;55.03
64889;BME280;51386;53.082;8.816;2022-12-10T03:26:05;100851.81;;;7.01;54.52
64889;BME280;51386;53.082;8.816;2022-12-10T03:28:38;100844.25;;;6.98;54.73
64889;BME280;51386;53.082;8.816;2022-12-10T03:31:14;100842.84;;;7.03;54.89
64889;BME280;51386;53.082;8.816;2022-12-10T03:33:42;100838.50;;;7.12;55.07
64889;BME280;51386;53.082;8.816;2022-12-10T03:36:10;100849.19;;;7.18;54.32
64889;BME280;51386;53.082;8.816;2022-12-10T03:38:38;100849.44;;;7.25;54.30
64889;BME280;51386;53.082;8.816;2022-12-10T03:41:06;100845.53;;;7.29;54.81
64889;BME280;51386;53.082;8.816;2022-12-10T03:43:33;100847.53;;;7.35;54.44
64889;BME280;51386;53.082;8.816;2022-12-10T03:46:00;100832.75;;;7.43;54.52
64889;BME280;51386;53.082;8.816;2022-12-10T03:48:29;100834.59;;;7.51;54.29
64889;BME280;51386;53.082;8.816;2022-12-10T03:50:56;100838.53;;;7.55;54.01
64889;BME280;51386;53.082;8.816;2022-12-10T03:53:23;100832.84;;;7.60;53.93
64889;BME280;51386;53.082;8.816;2022-12-10T03:55:50;100833.69;;;7.60;53.39
64889;BME280;51386;53.082;8.816;2022-12-10T03:58:17;100832.03;;;7.59;53.56
64889;BME280;51386;53.082;8.816;2022-12-10T04:00:46;100832.56;;;7.63;54.12
64889;BME280;51386;53.082;8.816;2022-12-10T04:03:13;100840.25;;;7.64;53.74
64889;BME280;51386;53.082;8.816;2022-12-10T04:05:41;100835.66;;;7.66;53.78
64889;BME280;51386;53.082;8.816;2022-12-10T04:08:08;100836.34;;;7.68;53.45
64889;BME280;51386;53.082;8.816;2022-12-10T04:10:36;100839.63;;;7.70;53.37
64889;BME280;51386;53.082;8.816;2022-12-10T04:13:03;100837.69;;;7.72;53.79
64889;BME280;51386;53.082;8.816;2022-12-10T04:15:49;100834.75;;;7.75;53.03
64889;BME280;51386;53.082;8.816;2022-12-10T04:18:34;100846.22;;;7.74;52.99
64889;BME280;51386;53.082;8.816;2022-12-10T04:21:03;100840.78;;;7.68;52.74
64889;BME280;51386;53.082;8.816;2022-12-10T04:23:49;100845.41;;;7.56;52.55
64889;BME280;51386;53.082;8.816;2022-12-10T04:26:35;100839.94;;;7.41;53.14
64889;BME280;51386;53.082;8.816;2022-12-10T04:29:21;100835.50;;;7.42;53.76
64889;BME280;51386;53.082;8.816;2022-12-10T04:31:48;100831.63;;;7.46;53.20
64889;BME280;51386;53.082;8.816;2022-12-10T04:34:15;100836.53;;;7.49;53.49
64889;BME280;51386;53.082;8.816;2022-12-10T04:36:45;100835.94;;;7.55;53.11
64889;BME280;51386;53.082;8.816;2022-12-10T04:39:12;100834.50;;;7.61;52.85
64889;BME280;51386;53.082;8.816;2022-12-10T04:41:42;100834.34;;;7.62;52.14
64889;BME280;51386;53.082;8.816;2022-12-10T04:44:10;100826.13;;;7.57;51.83
64889;BME280;51386;53.082;8.816;2022-12-10T04:46:38;100823.78;;;7.54;50.90
64889;BME280;51386;53.082;8.816;2022-12-10T04:49:05;100831.28;;;7.49;51.61
64889;BME280;51386;53.082;8.816;2022-12-10T04:51:33;100833.78;;;7.50;51.81
64889;BME280;51386;53.082;8.816;2022-12-10T04:54:01;100834.28;;;7.54;51.98
64889;BME280;51386;53.082;8.816;2022-12-10T04:56:29;100840.88;;;7.58;51.49
64889;BME280;51386;53.082;8.816;2022-12-10T04:58:58;100824.31;;;7.58;51.15
64889;BME280;51386;53.082;8.816;2022-12-10T05:01:26;100827.91;;;7.57;50.37
64889;BME280;51386;53.082;8.816;2022-12-10T05:03:53;100834.28;;;7.54;50.42
64889;BME280;51386;53.082;8.816;2022-12-10T05:06:20;100829.38;;;7.51;50.60
64889;BME280;51386;53.082;8.816;2022-12-10T05:08:48;100830.13;;;7.43;51.28
64889;BME280;51386;53.082;8.816;2022-12-10T05:11:19;100830.22;;;7.34;51.13
64889;BME280;51386;53.082;8.816;2022-12-10T05:13:46;100827.59;;;7.34;50.42
64889;BME280;51386;53.082;8.816;2022-12-10T05:16:17;100824.31;;;7.32;50.27
64889;BME280;51386;53.082;8.816;2022-12-10T05:18:45;100827.59;;;7.34;50.26
64889;BME280;51386;53.082;8.816;2022-12-10T05:21:15;100824.97;;;7.34;50.17
64889;BME280;51386;53.082;8.816;2022-12-10T05:23:45;100820.69;;;7.33;50.15
64889;BME280;51386;53.082;8.816;2022-12-10T05:26:17;100821.53;;;7.33;51.04
64889;BME280;51386;53.082;8.816;2022-12-10T05:28:47;100827.25;;;7.37;50.90
64889;BME280;51386;53.082;8.816;2022-12-10T05:31:16;100822.41;;;7.42;50.04
64889;BME280;51386;53.082;8.816;2022-12-10T05:33:44;100825.00;;;7.42;49.48
64889;BME280;51386;53.082;8.816;2022-12-10T05:36:14;100826.84;;;7.41;49.71
64889;BME280;51386;53.082;8.816;2022-12-10T05:38:43;100824.66;;;7.37;49.31
64889;BME280;51386;53.082;8.816;2022-12-10T05:41:13;100823.97;;;7.35;50.01
64889;BME280;51386;53.082;8.816;2022-12-10T05:43:43;100828.41;;;7.34;49.37
64889;BME280;51386;53.082;8.816;2022-12-10T05:46:14;100836.56;;;7.31;50.17
64889;BME280;51386;53.082;8.816;2022-12-10T05:48:41;100833.13;;;7.31;50.35
64889;BME280;51386;53.082;8.816;2022-12-10T05:51:11;100838.66;;;7.28;50.13
64889;BME280;51386;53.082;8.816;2022-12-10T05:53:39;100833.72;;;7.25;50.54
64889;BME280;51386;53.082;8.816;2022-12-10T05:56:10;100846.50;;;7.28;50.11
64889;BME280;51386;53.082;8.816;2022-12-10T05:58:39;100856.69;;;7.31;50.48
64889;BME280;51386;53.082;8.816;2022-12-10T06:01:09;100850.97;;;7.35;51.07
64889;BME280;51386;53.082;8.816;2022-12-10T06:03:38;100860.63;;;7.35;51.20
64889;BME280;51386;53.082;8.816;2022-12-10T06:06:05;100856.69;;;7.31;50.87
64889;BME280;51386;53.082;8.816;2022-12-10T06:08:34;100862.88;;;7.30;50.69
64889;BME280;51386;53.082;8.816;2022-12-10T06:11:02;100857.63;;;7.30;50.93
64889;BME280;51386;53.082;8.816;2022-12-10T06:13:29;100861.63;;;7.34;51.60
64889;BME280;51386;53.082;8.816;2022-12-10T06:15:56;100860.34;;;7.38;50.47
64889;BME280;51386;53.082;8.816;2022-12-10T06:18:25;100857.88;;;7.36;49.99
64889;BME280;51386;53.082;8.816;2022-12-10T06:20:51;100871.09;;;7.35;50.25
64889;BME280;51386;53.082;8.816;2022-12-10T06:23:18;100872.38;;;7.31;49.88
64889;BME280;51386;53.082;8.816;2022-12-10T06:25:45;100868.72;;;7.24;50.56
64889;BME280;51386;53.082;8.816;2022-12-10T06:28:12;100865.72;;;7.19;50.80
64889;BME280;51386;53.082;8.816;2022-12-10T06:30:39;100867.69;;;7.17;50.83
64889;BME280;51386;53.082;8.816;2022-12-10T06:33:06;100874.56;;;7.18;50.79
64889;BME280;51386;53.082;8.816;2022-12-10T06:35:36;100877.19;;;7.18;50.82
64889;BME280;51386;53.082;8.816;2022-12-10T06:38:04;100873.56;;;7.19;51.64
64889;BME280;51386;53.082;8.816;2022-12-10T06:40:30;100876.81;;;7.13;51.04
64889;BME280;51386;53.082;8.816;2022-12-10T06:42:57;100874.03;;;7.14;50.29
64889;BME280;51386;53.082;8.816;2022-12-10T06:45:24;100877.47;;;7.15;50.08
64889;BME280;51386;53.082;8.816;2022-12-10T06:47:51;100887.13;;;7.14;49.85
64889;BME280;51386;53.082;8.816;2022-12-10T06:50:18;100886.50;;;7.03;51.01
64889;BME280;51386;53.082;8.816;2022-12-10T06:52:46;100888.44;;;7.01;51.52
64889;BME280;51386;53.082;8.816;2022-12-10T06:55:20;100884.13;;;6.92;51.89
64889;BME280;51386;53.082;8.816;2022-12-10T06:57:50;100886.34;;;6.87;52.01
64889;BME280;51386;53.082;8.816;2022-12-10T07:00:18;100898.16;;;6.91;51.99
64889;BME280;51386;53.082;8.816;2022-12-10T07:02:48;100893.81;;;6.99;52.58
64889;BME280;51386;53.082;8.816;2022-12-10T07:05:15;100899.16;;;7.07;52.55
64889;BME280;51386;53.082;8.816;2022-12-10T07:07:43;100901.91;;;7.06;52.16
64889;BME280;51386;53.082;8.816;2022-12-10T07:10:13;100905.78;;;7.02;52.94
64889;BME280;51386;53.082;8.816;2022-12-10T07:12:40;100904.16;;;7.01;52.47
64889;BME280;51386;53.082;8.816;2022-12-10T07:15:08;100915.72;;;6.98;53.55
64889;BME280;51386;53.082;8.816;2022-12-10T07:17:35;100908.00;;;6.97;53.68
64889;BME280;51386;53.082;8.816;2022-12-10T07:20:03;100912.88;;;6.92;54.06
64889;BME280;51386;53.082;8.816;2022-12-10T07:22:30;100919.97;;;6.81;53.96
64889;BME280;51386;53.082;8.816;2022-12-10T07:24:57;100917.00;;;6.67;54.17
64889;BME280;51386;53.082;8.816;2022-12-10T07:27:25;100922.94;;;6.59;55.07
64889;BME280;51386;53.082;8.816;2022-12-10T07:29:52;100922.44;;;6.56;54.67
64889;BME280;51386;53.082;8.816;2022-12-10T07:32:19;100929.84;;;6.60;55.16
64889;BME280;51386;53.082;8.816;2022-12-10T07:34:46;100927.22;;;6.60;55.68
64889;BME280;51386;53.082;8.816;2022-12-10T07:37:13;100919.22;;;6.62;55.04
64889;BME280;51386;53.082;8.816;2022-12-10T07:39:40;100917.84;;;6.67;54.75
64889;BME280;51386;53.082;8.816;2022-12-10T07:42:09;100920.69;;;6.74;54.25
64889;BME280;51386;53.082;8.816;2022-12-10T07:44:37;100921.91;;;6.79;53.89
64889;BME280;51386;53.082;8.816;2022-12-10T07:47:05;100926.31;;;6.79;53.77
64889;BME280;51386;53.082;8.816;2022-12-10T07:49:32;100930.13;;;6.85;53.73
64889;BME280;51386;53.082;8.816;2022-12-10T07:51:59;100929.97;;;6.86;53.62
64889;BME280;51386;53.082;8.816;2022-12-10T07:54:26;100933.44;;;6.87;53.45
64889;BME280;51386;53.082;8.816;2022-12-10T07:56:53;100943.56;;;6.90;52.71
64889;BME280;51386;53.082;8.816;2022-12-10T07:59:19;100932.81;;;6.93;52.76
64889;BME280;51386;53.082;8.816;2022-12-10T08:01:48;100937.22;;;6.92;52.26
64889;BME280;51386;53.082;8.816;2022-12-10T08:04:16;100941.06;;;6.98;52.87
64889;BME280;51386;53.082;8.816;2022-12-10T08:06:43;100954.81;;;7.00;52.18
64889;BME280;51386;53.082;8.816;2022-12-10T08:09:11;100946.28;;;6.98;52.33
64889;BME280;51386;53.082;8.816;2022-12-10T08:11:38;100946.59;;;6.95;52.21
64889;BME280;51386;53.082;8.816;2022-12-10T08:14:05;100952.19;;;7.00;50.99
64889;BME280;51386;53.082;8.816;2022-12-10T08:16:32;100954.81;;;7.00;51.32
64889;BME280;51386;53.082;8.816;2022-12-10T08:19:01;100959.50;;;7.06;51.54
64889;BME280;51386;53.082;8.816;2022-12-10T08:21:31;100952.81;;;7.11;51.54
64889;BME280;51386;53.082;8.816;2022-12-10T08:23:59;100968.53;;;7.11;51.87
64889;BME280;51386;53.082;8.816;2022-12-10T08:26:30;100968.97;;;7.07;51.65
64889;BME280;51386;53.082;8.816;2022-12-10T08:28:58;100969.25;;;7.04;52.37
64889;BME280;51386;53.082;8.816;2022-12-10T08:31:27;100969.97;;;7.06;52.16
64889;BME280;51386;53.082;8.816;2022-12-10T08:34:01;100969.63;;;7.09;52.57
64889;BME280;51386;53.082;8.816;2022-12-10T08:36:28;100974.59;;;7.12;52.72
64889;BME280;51386;53.082;8.816;2022-12-10T08:38:57;100973.91;;;7.10;52.32
64889;BME280;51386;53.082;8.816;2022-12-10T08:41:24;100977.09;;;7.04;52.25
64889;BME280;51386;53.082;8.816;2022-12-10T08:43:52;100979.03;;;7.02;52.89
64889;BME280;51386;53.082;8.816;2022-12-10T08:46:19;100976.44;;;7.02;52.80
64889;BME280;51386;53.082;8.816;2022-12-10T08:48:46;100979.44;;;7.07;53.43
64889;BME280;51386;53.082;8.816;2022-12-10T08:51:18;100972.94;;;7.11;53.46
64889;BME280;51386;53.082;8.816;2022-12-10T08:53:45;100976.38;;;7.11;53.10
64889;BME280;51386;53.082;8.816;2022-12-10T08:56:13;100968.97;;;7.07;53.44
64889;BME280;51386;53.082;8.816;2022-12-10T08:58:40;100977.38;;;7.10;53.85
64889;BME280;51386;53.082;8.816;2022-12-10T09:01:09;100975.41;;;7.12;53.59
64889;BME280;51386;53.082;8.816;2022-12-10T09:03:37;100979.94;;;7.20;53.62
64889;BME280;51386;53.082;8.816;2022-12-10T09:06:06;100978.66;;;7.24;53.31
64889;BME280;51386;53.082;8.816;2022-12-10T09:08:37;100986.22;;;7.27;53.28
64889;BME280;51386;53.082;8.816;2022-12-10T09:11:06;100985.63;;;7.33;52.94
64889;BME280;51386;53.082;8.816;2022-12-10T09:13:33;100986.69;;;7.40;53.02
64889;BME280;51386;53.082;8.816;2022-12-10T09:16:01;100990.34;;;7.47;52.85
64889;BME280;51386;53.082;8.816;2022-12-10T09:18:28;100994.56;;;7.58;52.75
64889;BME280;51386;53.082;8.816;2022-12-10T09:20:55;101003.47;;;7.65;52.37
64889;BME280;51386;53.082;8.816;2022-12-10T09:23:23;101011.16;;;7.66;52.19
64889;BME280;51386;53.082;8.816;2022-12-10T09:25:51;101006.09;;;7.65;51.55
64889;BME280;51386;53.082;8.816;2022-12-10T09:28:18;101010.41;;;7.56;50.65
64889;BME280;51386;53.082;8.816;2022-12-10T09:30:54;101006.28;;;7.53;51.00
64889;BME280;51386;53.082;8.816;2022-12-10T09:33:21;101004.88;;;7.59;51.38
64889;BME280;51386;53.082;8.816;2022-12-10T09:35:48;101002.34;;;7.67;51.25
64889;BME280;51386;53.082;8.816;2022-12-10T09:38:15;101010.25;;;7.75;51.35
64889;BME280;51386;53.082;8.816;2022-12-10T09:40:49;101007.44;;;7.86;51.11
64889;BME280;51386;53.082;8.816;2022-12-10T09:43:28;101003.53;;;7.90;49.71
64889;BME280;51386;53.082;8.816;2022-12-10T09:46:08;101006.16;;;7.90;49.96
64889;BME280;51386;53.082;8.816;2022-12-10T09:48:55;100998.00;;;7.93;49.82
64889;BME280;51386;53.082;8.816;2022-12-10T09:51:31;100998.22;;;8.00;49.78
64889;BME280;51386;53.082;8.816;2022-12-10T09:54:04;101003.63;;;7.98;48.69
64889;BME280;51386;53.082;8.816;2022-12-10T09:56:38;101002.13;;;7.96;49.02
64889;BME280;51386;53.082;8.816;2022-12-10T09:59:20;101003.53;;;7.90;48.51
64889;BME280;51386;53.082;8.816;2022-12-10T10:02:01;101002.88;;;7.88;48.58
64889;BME280;51386;53.082;8.816;2022-12-10T10:04:28;101000.53;;;7.85;48.23
64889;BME280;51386;53.082;8.816;2022-12-10T10:06:57;101004.16;;;7.84;48.60
64889;BME280;51386;53.082;8.816;2022-12-10T10:09:24;101000.53;;;7.85;48.59
64889;BME280;51386;53.082;8.816;2022-12-10T10:11:52;101009.91;;;7.88;48.36
64889;BME280;51386;53.082;8.816;2022-12-10T10:14:26;101007.44;;;7.86;48.65
64889;BME280;51386;53.082;8.816;2022-12-10T10:16:59;101010.50;;;7.82;48.05
64889;BME280;51386;53.082;8.816;2022-12-10T10:19:31;101007.72;;;7.83;47.92
64889;BME280;51386;53.082;8.816;2022-12-10T10:22:00;101006.00;;;7.74;46.92
64889;BME280;51386;53.082;8.816;2022-12-10T10:24:35;101008.09;;;7.71;47.73
64889;BME280;51386;53.082;8.816;2022-12-10T10:27:13;101008.63;;;7.74;48.21
64889;BME280;51386;53.082;8.816;2022-12-10T10:29:44;101016.53;;;7.82;47.77
64889;BME280;51386;53.082;8.816;2022-12-10T10:32:18;101009.38;;;7.84;47.25
64889;BME280;51386;53.082;8.816;2022-12-10T10:34:52;101009.72;;;7.89;46.95
64889;BME280;51386;53.082;8.816;2022-12-10T10:37:22;101017.00;;;7.95;46.73
64889;BME280;51386;53.082;8.816;2022-12-10T10:39:52;101016.25;;;8.03;47.43
64889;BME280;51386;53.082;8.816;2022-12-10T10:42:36;101014.00;;;8.08;46.66
64889;BME280;51386;53.082;8.816;2022-12-10T10:45:35;101012.72;;;8.12;46.01
64889;BME280;51386;53.082;8.816;2022-12-10T10:48:09;101008.44;;;8.11;45.85
64889;BME280;51386;53.082;8.816;2022-12-10T10:50:40;101005.81;;;8.11;46.01
64889;BME280;51386;53.082;8.816;2022-12-10T10:53:42;101004.28;;;8.00;44.64
64889;BME280;51386;53.082;8.816;2022-12-10T10:56:16;101008.41;;;8.03;44.50
64889;BME280;51386;53.082;8.816;2022-12-10T10:58:54;100999.41;;;8.05;44.80
64889;BME280;51386;53.082;8.816;2022-12-10T11:01:25;100997.50;;;8.15;45.23
64889;BME280;51386;53.082;8.816;2022-12-10T11:03:57;101001.84;;;8.25;44.66
64889;BME280;51386;53.082;8.816;2022-12-10T11:06:25;100995.19;;;8.30;44.97
64889;BME280;51386;53.082;8.816;2022-12-10T11:08:57;100999.75;;;8.28;44.30
64889;BME280;51386;53.082;8.816;2022-12-10T11:11:33;100998.94;;;8.28;45.04
64889;BME280;51386;53.082;8.816;2022-12-10T11:14:19;100992.72;;;8.29;45.40
64889;BME280;51386;53.082;8.816;2022-12-10T11:17:00;100985.03;;;8.27;45.50
64889;BME280;51386;53.082;8.816;2022-12-10T11:19:27;100991.66;;;8.22;45.67
64889;BME280;51386;53.082;8.816;2022-12-10T11:21:54;100993.91;;;8.16;46.01
64889;BME280;51386;53.082;8.816;2022-12-10T11:24:21;100992.94;;;8.17;45.84
64889;BME280;51386;53.082;8.816;2022-12-10T11:27:03;100987.53;;;8.19;45.79
64889;BME280;51386;53.082;8.816;2022-12-10T11:29:52;100988.13;;;8.13;45.32
64889;BME280;51386;53.082;8.816;2022-12-10T11:35:39;100977.44;;;8.06;45.64
64889;BME280;51386;53.082;8.816;2022-12-10T11:38:25;100981.16;;;7.96;45.16
64889;BME280;51386;53.082;8.816;2022-12-10T11:41:06;100982.66;;;7.98;45.78
64889;BME280;51386;53.082;8.816;2022-12-10T11:43:53;100989.38;;;8.01;45.95
64889;BME280;51386;53.082;8.816;2022-12-10T11:46:57;100991.22;;;8.08;45.89
64889;BME280;51386;53.082;8.816;2022-12-10T11:49:43;100982.09;;;8.12;45.22
64889;BME280;51386;53.082;8.816;2022-12-10T11:52:24;100976.19;;;8.10;44.60
64889;BME280;51386;53.082;8.816;2022-12-10T11:55:09;100980.75;;;8.08;45.40
64889;BME280;51386;53.082;8.816;2022-12-10T11:57:49;100971.97;;;8.17;45.05
64889;BME280;51386;53.082;8.816;2022-12-10T12:00:22;100972.25;;;8.32;45.38
64889;BME280;51386;53.082;8.816;2022-12-10T12:03:22;100979.34;;;8.40;45.40
64889;BME280;51386;53.082;8.816;2022-12-10T12:06:16;100978.09;;;8.44;44.14
64889;BME280;51386;53.082;8.816;2022-12-10T12:08:58;100980.03;;;8.42;43.72
64889;BME280;51386;53.082;8.816;2022-12-10T12:11:47;100980.88;;;8.25;43.16
64889;BME280;51386;53.082;8.816;2022-12-10T12:14:24;100981.72;;;8.07;43.39
64889;BME280;51386;53.082;8.816;2022-12-10T12:17:03;100982.69;;;8.06;43.95
64889;BME280;51386;53.082;8.816;2022-12-10T12:19:36;100985.00;;;8.09;43.71
64889;BME280;51386;53.082;8.816;2022-12-10T12:22:14;100984.44;;;7.98;43.88
64889;BME280;51386;53.082;8.816;2022-12-10T12:24:44;100990.81;;;7.95;43.91
64889;BME280;51386;53.082;8.816;2022-12-10T12:27:25;100990.28;;;7.92;43.97
64889;BME280;51386;53.082;8.816;2022-12-10T12:30:06;100985.47;;;7.87;43.79
64889;BME280;51386;53.082;8.816;2022-12-10T12:32:45;100992.84;;;7.84;44.00
64889;BME280;51386;53.082;8.816;2022-12-10T12:35:20;100989.47;;;7.91;44.52
64889;BME280;51386;53.082;8.816;2022-12-10T12:37:56;100987.19;;;7.96;44.39
64889;BME280;51386;53.082;8.816;2022-12-10T12:40:29;100986.22;;;7.97;44.19
64889;BME280;51386;53.082;8.816;2022-12-10T12:43:01;100977.41;;;7.98;44.15
64889;BME280;51386;53.082;8.816;2022-12-10T12:45:36;100987.34;;;7.95;44.08
64889;BME280;51386;53.082;8.816;2022-12-10T12:48:18;100988.47;;;7.92;44.53
64889;BME280;51386;53.082;8.816;2022-12-10T12:50:50;100996.78;;;7.88;44.35
64889;BME280;51386;53.082;8.816;2022-12-10T12:53:22;100998.53;;;7.79;44.32
64889;BME280;51386;53.082;8.816;2022-12-10T12:55:59;100991.25;;;7.73;44.87
64889;BME280;51386;53.082;8.816;2022-12-10T12:58:38;100986.91;;;7.64;44.82
64889;BME280;51386;53.082;8.816;2022-12-10T13:01:20;100984.00;;;7.49;45.15
64889;BME280;51386;53.082;8.816;2022-12-10T13:03:51;100987.72;;;7.47;44.92
64889;BME280;51386;53.082;8.816;2022-12-10T13:06:24;100992.00;;;7.48;44.99
64889;BME280;51386;53.082;8.816;2022-12-10T13:09:24;100989.91;;;7.51;45.74
64889;BME280;51386;53.082;8.816;2022-12-10T13:12:27;100987.53;;;7.58;45.58
64889;BME280;51386;53.082;8.816;2022-12-10T13:15:14;100991.19;;;7.65;45.47
64889;BME280;51386;53.082;8.816;2022-12-10T13:18:05;100995.16;;;7.69;45.28
64889;BME280;51386;53.082;8.816;2022-12-10T13:20:40;100992.31;;;7.80;45.39
64889;BME280;51386;53.082;8.816;2022-12-10T13:23:33;100992.50;;;7.87;44.98
64889;BME280;51386;53.082;8.816;2022-12-10T13:26:24;100996.63;;;7.89;45.22
64889;BME280;51386;53.082;8.816;2022-12-10T13:28:53;100998.00;;;7.93;45.20